| time (UTC) | temp C | wind direction | speed KPH | gust KPH | rain 1hr cm | rain 24hr cm | rain mn cm | humidity % | barometer mb |
| 20260503013118 | 18 | 28 | 4.8 | 9.7 | 0.00 | 0.00 | 0.00 | 33 | 1016.1 |
| 20260503011609 | 18 | 339 | 0.0 | 4.8 | 0.00 | 0.00 | 0.00 | 34 | 1016.2 |
| 20260503010111 | 18 | 335 | 3.2 | 6.4 | 0.00 | 0.00 | 0.00 | 34 | 1016.4 |
| 20260503004544 | 18 | 46 | 3.2 | 17.7 | 0.00 | 0.00 | 0.00 | 32 | 1016.4 |
| 20260503003049 | 18 | 240 | 4.8 | 11.3 | 0.00 | 0.00 | 0.00 | 32 | 1016.8 |
| 20260503001555 | 18 | 291 | 4.8 | 14.5 | 0.00 | 0.00 | 0.00 | 32 | 1016.8 |
| 20260503000108 | 19 | 244 | 8.0 | 14.5 | 0.00 | 0.00 | 0.00 | 31 | 1016.7 |
| 20260502234548 | 20 | 325 | 9.7 | 16.1 | 0.00 | 0.00 | 0.00 | 29 | 1016.9 |
| 20260502233051 | 19 | 281 | 6.4 | 17.7 | 0.00 | 0.00 | 0.00 | 31 | 1017.2 |
| 20260502231616 | 20 | 288 | 3.2 | 8.0 | 0.00 | 0.00 | 0.00 | 30 | 1017.3 |
| 20260502230121 | 19 | 227 | 1.6 | 14.5 | 0.00 | 0.00 | 0.00 | 32 | 1017.5 |
| 20260502224625 | 18 | 296 | 9.7 | 22.5 | 0.00 | 0.00 | 0.00 | 32 | 1017.7 |
| 20260502223100 | 19 | 247 | 14.5 | 24.1 | 0.00 | 0.00 | 0.00 | 32 | 1017.9 |
| 20260502221550 | 18 | 255 | 0.0 | 6.4 | 0.00 | 0.00 | 0.00 | 34 | 1018.1 |
| 20260502220051 | 18 | 326 | 9.7 | 20.9 | 0.00 | 0.00 | 0.00 | 34 | 1018.4 |
| 20260502214548 | 18 | 229 | 3.2 | 19.3 | 0.00 | 0.00 | 0.00 | 34 | 1018.7 |
| 20260502213054 | 18 | 5 | 6.4 | 17.7 | 0.00 | 0.00 | 0.00 | 34 | 1018.8 |
| 20260502211555 | 18 | 339 | 8.0 | 14.5 | 0.00 | 0.00 | 0.00 | 35 | 1018.9 |
| 20260502210054 | 18 | 306 | 14.5 | 22.5 | 0.00 | 0.00 | 0.00 | 34 | 1019.1 |
| 20260502204607 | 17 | 346 | 0.0 | 19.3 | 0.00 | 0.00 | 0.00 | 35 | 1019.2 |
| 20260502203054 | 18 | 39 | 11.3 | 24.1 | 0.00 | 0.00 | 0.00 | 36 | 1019.4 |
| 20260502201559 | 17 | 338 | 12.9 | 29.0 | 0.00 | 0.00 | 0.00 | 35 | 1019.3 |
| 20260502200107 | 18 | 350 | 20.9 | 25.7 | 0.00 | 0.00 | 0.00 | 35 | 1019.4 |
| 20260502194557 | 17 | 335 | 11.3 | 25.7 | 0.00 | 0.00 | 0.00 | 36 | 1019.7 |
| 20260502193100 | 17 | 360 | 16.1 | 24.1 | 0.00 | 0.00 | 0.00 | 37 | 1019.9 |
| 20260502191604 | 17 | 40 | 3.2 | 30.6 | 0.00 | 0.00 | 0.00 | 36 | 1019.9 |
| 20260502190110 | 17 | 350 | 16.1 | 30.6 | 0.00 | 0.00 | 0.00 | 36 | 1019.9 |
| 20260502184558 | 17 | 23 | 16.1 | 20.9 | 0.00 | 0.00 | 0.00 | 38 | 1020.3 |
| 20260502183107 | 17 | 78 | 11.3 | 25.7 | 0.00 | 0.00 | 0.00 | 37 | 1020.3 |
| 20260502181609 | 17 | 360 | 12.9 | 20.9 | 0.00 | 0.00 | 0.00 | 36 | 1020.3 |
| 20260502180112 | 17 | 43 | 9.7 | 24.1 | 0.00 | 0.00 | 0.00 | 38 | 1020.7 |
| 20260502163103 | 16 | 49 | 17.7 | 27.4 | 0.00 | 0.00 | 0.00 | 40 | 1020.8 |
| 20260502161811 | 15 | 53 | 14.5 | 32.2 | 0.00 | 0.00 | 0.00 | 41 | 1020.7 |
| 20260502151548 | 13 | 86 | 16.1 | 20.9 | 0.00 | 0.00 | 0.00 | 43 | 1020.4 |
| 20260502150104 | 13 | 79 | 17.7 | 24.1 | 0.00 | 0.00 | 0.00 | 43 | 1020.2 |
| 20260502140112 | 11 | 44 | 14.5 | 24.1 | 0.00 | 0.00 | 0.00 | 50 | 1020.0 |
| 20260502123045 | 7 | 360 | 17.7 | 25.7 | 0.00 | 0.00 | 0.00 | 57 | 1019.1 |
| 20260502121541 | 8 | 360 | 19.3 | 24.1 | 0.00 | 0.00 | 0.00 | 55 | 1018.7 |
| 20260502114546 | 8 | 360 | 17.7 | 22.5 | 0.00 | 0.00 | 0.00 | 53 | 1018.3 |
| 20260502113042 | 8 | 360 | 17.7 | 22.5 | 0.00 | 0.00 | 0.00 | 52 | 1018.3 |
| 20260502111555 | 8 | 360 | 14.5 | 20.9 | 0.00 | 0.00 | 0.00 | 50 | 1017.9 |
| 20260502110052 | 9 | 41 | 12.9 | 20.9 | 0.00 | 0.00 | 0.00 | 48 | 1017.6 |
| 20260502104540 | 8 | 28 | 11.3 | 17.7 | 0.00 | 0.00 | 0.00 | 48 | 1017.4 |
| 20260502103044 | 8 | 14 | 11.3 | 17.7 | 0.00 | 0.00 | 0.00 | 46 | 1017.4 |
| 20260502101548 | 9 | 28 | 14.5 | 22.5 | 0.00 | 0.00 | 0.00 | 44 | 1017.2 |
| 20260502090107 | 12 | 329 | 9.7 | 17.7 | 0.00 | 0.00 | 0.00 | 34 | 1016.1 |
| 20260502070055 | 13 | 333 | 9.7 | 19.3 | 0.00 | 0.00 | 0.00 | 31 | 1015.9 |
| 20260502064558 | 13 | 338 | 17.7 | 22.5 | 0.00 | 0.00 | 0.00 | 31 | 1015.7 |
| 20260502063120 | 15 | 350 | 20.9 | 27.4 | 0.00 | 0.00 | 0.00 | 29 | 1015.7 |
| 20260502061555 | 15 | 345 | 22.5 | 27.4 | 0.00 | 0.00 | 0.00 | 29 | 1015.7 |
| 20260502060058 | 15 | 335 | 20.9 | 27.4 | 0.00 | 0.00 | 0.00 | 26 | 1015.6 |
| 20260502054606 | 15 | 334 | 24.1 | 30.6 | 0.00 | 0.00 | 0.00 | 26 | 1015.4 |
| 20260502053103 | 15 | 334 | 24.1 | 29.0 | 0.00 | 0.00 | 0.00 | 26 | 1015.5 |
| 20260502051540 | 15 | 332 | 24.1 | 29.0 | 0.00 | 0.00 | 0.00 | 26 | 1015.5 |
| 20260502050050 | 15 | 331 | 19.3 | 24.1 | 0.00 | 0.00 | 0.00 | 25 | 1015.4 |
| 20260502044539 | 15 | 321 | 17.7 | 22.5 | 0.00 | 0.00 | 0.00 | 24 | 1015.6 |
| 20260502043047 | 16 | 326 | 14.5 | 20.9 | 0.00 | 0.00 | 0.00 | 22 | 1015.6 |
| 20260502041549 | 16 | 331 | 17.7 | 22.5 | 0.00 | 0.00 | 0.00 | 21 | 1015.6 |
| 20260502040045 | 16 | 321 | 14.5 | 17.7 | 0.00 | 0.00 | 0.00 | 21 | 1015.6 |
| 20260502034558 | 16 | 318 | 14.5 | 17.7 | 0.00 | 0.00 | 0.00 | 21 | 1015.4 |
| 20260502033051 | 15 | 317 | 6.4 | 9.7 | 0.00 | 0.00 | 0.00 | 22 | 1015.4 |
| 20260502032037 | 16 | 321 | 8.0 | 9.7 | 0.00 | 0.00 | 0.00 | 22 | 1015.3 |
| 20260502030057 | 16 | 327 | 8.0 | 16.1 | 0.00 | 0.00 | 0.00 | 22 | 1015.1 |
| 20260502024607 | 17 | 309 | 6.4 | 8.0 | 0.00 | 0.00 | 0.00 | 21 | 1014.9 |
| 20260502023053 | 17 | 298 | 4.8 | 8.0 | 0.00 | 0.00 | 0.00 | 21 | 1014.9 |
| 20260502021538 | 18 | 266 | 4.8 | 6.4 | 0.00 | 0.00 | 0.00 | 20 | 1014.8 |
| 20260502020044 | 18 | 245 | 4.8 | 8.0 | 0.00 | 0.00 | 0.00 | 19 | 1015.0 |
| 20260502014553 | 20 | 238 | 6.4 | 14.5 | 0.00 | 0.00 | 0.00 | 18 | 1014.9 |